Time;durP1;ratioP1;P1;durP2;ratioP2;P2;SDS_P1;SDS_P2;PMS_P1;PMS_P2;Temp;Humidity;BMP_temperature;BMP_pressure;BME280_temperature;BME280_humidity;BME280_pressure;Samples;Min_cycle;Max_cycle;Signal;HPM_P1;HPM_P2
2021/05/11 00:01:24;;;;;;;16.13;6.10;;;;;;;16.79;65.16;99955.90;3353554;85;34371;-85
2021/05/11 00:06:25;;;;;;;49.83;26.50;;;;;;;16.74;64.91;99955.02;3352666;85;98740;-85
2021/05/11 00:11:26;;;;;;;58.87;33.90;;;;;;;16.66;65.13;99952.19;3365952;85;33328;-84
2021/05/11 00:16:27;;;;;;;32.30;21.47;;;;;;;16.59;65.23;99960.09;3395626;84;99072;-85
2021/05/11 00:21:28;;;;;;;23.93;13.97;;;;;;;16.54;65.39;99952.84;3456696;84;33342;-84
2021/05/11 00:26:29;;;;;;;14.28;7.50;;;;;;;16.48;66.05;99953.17;3438261;83;98899;-84
2021/05/11 00:31:30;;;;;;;13.63;7.37;;;;;;;16.43;66.41;99954.46;3444130;83;26213;-84
2021/05/11 00:36:31;;;;;;;15.97;5.90;;;;;;;16.37;66.13;99935.31;3439694;84;98684;-84
2021/05/11 00:41:32;;;;;;;14.43;6.73;;;;;;;16.30;66.53;99934.67;3446260;84;31801;-84
2021/05/11 00:46:35;;;;;;;12.53;6.63;;;;;;;16.16;66.61;99921.84;3446075;83;98618;-84
2021/05/11 00:51:35;;;;;;;11.80;6.67;;;;;;;16.17;66.71;99930.94;3444284;83;32231;-84
2021/05/11 00:56:36;;;;;;;12.17;6.90;;;;;;;16.10;67.06;99918.59;3376286;84;98486;-84
2021/05/11 01:01:37;;;;;;;13.17;6.83;;;;;;;16.06;67.12;99933.14;3350856;87;31909;-84
2021/05/11 01:06:38;;;;;;;15.40;8.47;;;;;;;15.99;67.45;99930.51;3390849;84;98538;-85
2021/05/11 01:11:39;;;;;;;15.40;7.93;;;;;;;15.95;67.45;99925.62;3411989;84;32080;-84
2021/05/11 01:16:41;;;;;;;12.60;6.97;;;;;;;15.88;67.86;99929.33;3336168;86;98599;-84
2021/05/11 01:22:02;;;;;;;14.07;6.80;;;;;;;15.83;67.83;99938.14;3389017;85;31894;-85
2021/05/11 02:24:59;;;;;;;13.27;6.93;;;;;;;15.03;70.60;99904.77;3461933;83;28650;-84
2021/05/11 02:30:00;;;;;;;13.97;7.57;;;;;;;14.97;70.95;99905.86;3452841;83;98173;-85
2021/05/11 02:35:00;;;;;;;12.47;6.60;;;;;;;14.92;71.07;99894.45;3460550;83;32152;-85
2021/05/11 02:40:01;;;;;;;15.17;7.17;;;;;;;14.87;71.29;99892.18;3455192;83;98447;-84
2021/05/11 02:45:09;;;;;;;10.93;6.93;;;;;;;14.83;71.60;99887.28;3442891;83;32683;-84
2021/05/11 02:50:09;;;;;;;14.23;8.23;;;;;;;14.78;71.35;99897.45;3453013;83;98142;-84
2021/05/11 02:55:10;;;;;;;15.33;7.30;;;;;;;14.75;71.82;99889.95;3458329;83;31820;-84
2021/05/11 03:00:14;;;;;;;16.07;9.13;;;;;;;14.70;72.46;99889.84;3448392;83;98271;-85
2021/05/11 03:05:16;;;;;;;13.83;7.90;;;;;;;14.66;71.96;99884.94;3455051;83;26247;-85
2021/05/11 03:10:19;;;;;;;13.32;7.20;;;;;;;14.63;72.42;99882.22;3453583;83;98691;-84
2021/05/11 03:15:20;;;;;;;13.93;8.43;;;;;;;14.61;72.21;99881.87;3453712;84;29590;-85
2021/05/11 03:20:20;;;;;;;15.23;9.33;;;;;;;14.57;72.46;99887.46;3452972;83;98891;-85
2021/05/11 03:25:21;;;;;;;12.63;8.37;;;;;;;14.57;72.41;99890.81;3453706;83;31829;-85
2021/05/11 03:30:22;;;;;;;14.93;8.73;;;;;;;14.40;72.35;99859.38;3449186;83;98434;-84
2021/05/11 03:35:22;;;;;;;13.77;8.70;;;;;;;14.47;73.57;99887.59;3462082;83;32192;-84
2021/05/11 03:40:23;;;;;;;12.80;8.13;;;;;;;14.47;73.57;99887.59;3448138;83;98759;-85
2021/05/11 03:45:30;;;;;;;12.43;7.70;;;;;;;14.48;73.01;99876.69;3401483;85;32167;-85
2021/05/11 03:50:27;;;;;;;12.93;8.27;;;;;;;14.47;73.22;99874.54;3384490;85;98697;-83
2021/05/11 03:55:27;;;;;;;14.43;7.53;;;;;;;14.51;73.37;99873.88;3363283;85;25988;-84
2021/05/11 04:00:28;;;;;;;15.32;8.05;;;;;;;14.52;73.47;99873.28;3337766;84;98838;-85
2021/05/11 04:05:30;;;;;;;13.13;7.50;;;;;;;14.55;73.74;99882.16;3383922;84;35097;-84
2021/05/11 04:20:54;;;;;;;15.70;8.53;;;;;;;14.65;73.39;99882.58;3407331;84;98436;-84
2021/05/11 04:25:54;;;;;;;14.47;7.13;;;;;;;14.72;73.71;99878.34;3396102;85;25980;-84
2021/05/11 04:30:55;;;;;;;14.40;8.27;;;;;;;14.80;73.45;99870.10;3358472;86;25990;-85
2021/05/11 04:35:56;;;;;;;15.83;8.23;;;;;;;14.93;73.07;99862.18;3376378;85;98990;-85
2021/05/11 04:40:56;;;;;;;17.32;8.65;;;;;;;15.06;72.97;99867.92;3388117;85;35093;-85
2021/05/11 04:51:10;;;;;;;13.57;7.97;;;;;;;15.33;71.93;99857.60;3360106;86;27642;-85
2021/05/11 04:56:11;;;;;;;13.17;7.13;;;;;;;15.47;71.31;99853.20;3353751;86;98632;-86
2021/05/11 05:01:11;;;;;;;18.73;7.83;;;;;;;15.64;70.35;99852.09;3446450;84;27010;-85
2021/05/11 05:06:12;;;;;;;15.90;8.20;;;;;;;15.83;69.91;99852.71;3451450;84;98693;-85
2021/05/11 05:11:14;;;;;;;13.57;7.87;;;;;;;15.99;69.51;99845.27;3451105;84;34976;-85
2021/05/11 05:16:15;;;;;;;15.00;7.70;;;;;;;16.23;69.04;99840.38;3453348;83;98492;-85
2021/05/11 05:21:16;;;;;;;13.97;7.90;;;;;;;16.53;68.22;99840.96;3451361;84;35507;-85
2021/05/11 05:26:20;;;;;;;15.03;7.87;;;;;;;16.95;67.21;99834.39;3445201;84;98656;-85
2021/05/11 05:31:19;;;;;;;16.17;8.03;;;;;;;17.45;66.26;99833.97;3449163;84;35336;-85
2021/05/11 05:36:21;;;;;;;18.70;7.83;;;;;;;18.08;64.40;99835.78;3439248;84;98877;-85
2021/05/11 05:41:24;;;;;;;11.40;7.03;;;;;;;18.67;62.89;99822.69;3448288;84;27027;-85
2021/05/11 05:46:25;;;;;;;13.07;6.30;;;;;;;19.26;61.81;99828.36;3440425;84;98376;-83
2021/05/11 05:51:27;;;;;;;15.38;7.00;;;;;;;19.80;59.25;99824.05;3447645;84;28961;-84
2021/05/11 05:56:28;;;;;;;18.48;6.78;;;;;;;20.22;57.80;99822.50;3436524;84;98741;-85
2021/05/11 06:01:29;;;;;;;16.65;7.28;;;;;;;20.78;57.26;99818.13;3447876;84;31061;-84
2021/05/11 06:06:30;;;;;;;11.83;6.80;;;;;;;21.26;55.39;99811.14;3442379;84;98967;-84
2021/05/11 06:11:39;;;;;;;17.27;6.50;;;;;;;21.71;55.26;99805.63;3445496;84;31384;-84
2021/05/11 06:21:54;;;;;;;17.20;7.10;;;;;;;22.55;53.26;99796.79;3439551;84;32070;-86
2021/05/11 06:26:55;;;;;;;27.65;7.42;;;;;;;22.97;51.75;99792.69;3418178;85;98749;-84
2021/05/11 06:31:56;;;;;;;14.95;6.33;;;;;;;23.18;50.55;99790.88;3424001;85;29999;-83
2021/05/11 06:36:56;;;;;;;11.93;5.80;;;;;;;23.32;48.86;99786.72;3417311;84;98005;-85
2021/05/11 06:41:58;;;;;;;14.47;5.72;;;;;;;23.29;49.20;99796.73;3439629;84;31297;-83
2021/05/11 06:57:34;;;;;;;12.65;5.58;;;;;;;23.90;47.78;99780.49;3427700;84;98596;-83
2021/05/11 07:02:35;;;;;;;15.23;5.08;;;;;;;23.86;48.03;99776.44;3436853;84;31845;-86
2021/05/11 07:07:36;;;;;;;12.73;5.33;;;;;;;23.93;47.40;99764.08;3433680;83;98720;-85
2021/05/11 07:18:10;;;;;;;23.73;5.70;;;;;;;23.94;46.86;99762.81;3431440;84;98967;-84
2021/05/11 07:23:15;;;;;;;12.33;5.30;;;;;;;23.81;46.53;99753.22;3434861;84;32299;-85
2021/05/11 07:33:37;;;;;;;9.35;4.50;;;;;;;23.59;46.51;99752.05;3436783;83;31772;-86
2021/05/11 07:38:35;;;;;;;10.65;4.53;;;;;;;23.55;47.43;99750.80;3426965;84;98255;-84
2021/05/11 07:43:38;;;;;;;17.67;4.97;;;;;;;23.64;47.40;99749.33;3430984;83;31948;-86
2021/05/11 08:15:12;;;;;;;12.63;4.53;;;;;;;24.79;46.55;99728.71;3391076;85;32351;-84
2021/05/11 08:30:28;;;;;;;9.50;4.10;;;;;;;26.33;43.65;99715.73;3391766;85;98215;-85
2021/05/11 08:35:29;;;;;;;13.00;4.55;;;;;;;26.94;43.05;99709.91;3405076;85;31836;-84
2021/05/11 08:40:32;;;;;;;12.90;4.85;;;;;;;27.44;42.10;99693.95;3397177;85;98500;-83
2021/05/11 08:45:33;;;;;;;12.95;4.33;;;;;;;27.66;40.96;99691.19;3406267;85;31753;-88
2021/05/11 08:50:39;;;;;;;8.50;3.87;;;;;;;27.93;40.75;99693.31;3397799;85;98320;-87
2021/05/11 09:06:37;;;;;;;10.85;3.87;;;;;;;28.96;38.46;99704.28;3401100;84;98506;-85
2021/05/11 09:59:38;;;;;;;19.57;4.35;;;;;;;31.69;33.05;99687.54;3453914;83;98469;-84
2021/05/11 10:32:44;;;;;;;11.80;4.35;;;;;;;32.15;32.88;99665.77;3430766;84;31775;-83
2021/05/11 10:38:14;;;;;;;11.53;3.67;;;;;;;31.72;32.58;99663.03;3427487;84;98362;-83
2021/05/11 10:48:24;;;;;;;12.00;3.92;;;;;;;31.97;32.22;99658.80;3431932;84;98392;-81
2021/05/11 10:53:56;;;;;;;8.33;3.22;;;;;;;32.28;31.88;99654.42;3388561;84;44866;-84
2021/05/11 11:04:32;;;;;;;8.48;2.87;;;;;;;32.33;30.60;99655.77;3434908;83;32373;-84
2021/05/11 11:09:39;;;;;;;8.08;3.20;;;;;;;32.18;31.06;99645.51;3434229;84;98307;-82
2021/05/11 11:14:44;;;;;;;12.37;3.37;;;;;;;32.53;31.15;99640.13;3434097;84;31852;-83
2021/05/11 11:19:56;;;;;;;14.00;3.12;;;;;;;32.20;30.83;99627.89;3426999;84;98512;-87
2021/05/11 11:24:58;;;;;;;11.68;3.02;;;;;;;32.38;31.83;99633.54;3453692;83;32018;-86
2021/05/11 11:30:12;;;;;;;8.98;2.72;;;;;;;32.55;30.97;99625.44;3429574;84;98359;-84
2021/05/11 11:35:13;;;;;;;8.70;2.98;;;;;;;32.66;30.35;99625.88;3422169;84;27027;-87
2021/05/11 11:40:16;;;;;;;6.75;3.10;;;;;;;32.63;30.40;99613.48;3433987;84;98133;-85
2021/05/11 11:45:27;;;;;;;9.33;2.58;;;;;;;32.60;30.43;99603.20;3434713;84;31805;-83
2021/05/11 11:50:33;;;;;;;7.97;2.70;;;;;;;32.42;30.22;99608.32;3429737;84;98256;-86
2021/05/11 12:00:50;;;;;;;11.90;3.08;;;;;;;32.73;30.85;99603.19;3385907;85;98112;-87
2021/05/11 12:05:53;;;;;;;10.55;2.58;;;;;;;33.14;30.69;99595.48;3393844;85;32687;-85
2021/05/11 12:10:58;;;;;;;8.78;2.70;;;;;;;33.28;30.17;99597.77;3391679;85;98378;-84
2021/05/11 12:16:21;;;;;;;7.85;2.98;;;;;;;33.13;30.12;99588.25;3385812;85;98498;-84
2021/05/11 12:21:22;;;;;;;9.28;2.90;;;;;;;33.33;29.84;99583.27;3368617;85;31832;-87
2021/05/11 12:26:23;;;;;;;11.65;2.98;;;;;;;33.19;30.03;99573.95;3396292;85;98541;-83
2021/05/11 12:31:29;;;;;;;14.10;2.52;;;;;;;33.20;27.68;99559.05;3418858;84;31812;-83
2021/05/11 12:36:30;;;;;;;8.13;2.72;;;;;;;32.94;28.31;99565.59;3398317;84;98732;-82
2021/05/11 12:41:32;;;;;;;7.70;2.20;;;;;;;32.82;28.77;99545.77;3422400;84;31870;-84
2021/05/11 12:46:37;;;;;;;10.48;2.52;;;;;;;32.74;29.06;99555.52;3404636;84;98504;-83
2021/05/11 12:51:41;;;;;;;9.28;2.72;;;;;;;32.70;28.82;99542.25;3406215;83;31917;-82
2021/05/11 13:19:49;;;;;;;7.28;2.17;;;;;;;32.80;27.26;99522.73;3426484;84;98460;-82
2021/05/11 13:23:07;;;;;;;9.48;2.50;;;;;;;32.67;27.85;99521.96;3448636;83;32384;-83
2021/05/11 13:28:07;;;;;;;7.80;1.92;;;;;;;32.71;26.56;99517.48;3440908;84;98146;-83
2021/05/11 13:38:08;;;;;;;8.75;2.50;;;;;;;32.32;28.15;99510.38;3458107;83;98422;-84
2021/05/11 13:43:08;;;;;;;9.90;3.02;;;;;;;32.41;28.04;99500.66;3461269;83;32354;-83
2021/05/11 13:48:20;;;;;;;4.30;1.62;;;;;;;32.34;28.03;99492.75;3457252;83;98130;-84
2021/05/11 13:53:16;;;;;;;8.73;2.25;;;;;;;32.32;28.00;99489.02;3466880;83;31860;-81
2021/05/11 14:03:36;;;;;;;8.68;2.87;;;;;;;32.65;28.18;99484.07;3470475;84;32365;-83
2021/05/11 14:08:36;;;;;;;10.45;2.52;;;;;;;32.34;27.89;99478.51;3459893;83;98585;-84
2021/05/11 14:13:37;;;;;;;5.65;2.40;;;;;;;32.14;28.05;99475.64;3467868;83;31869;-82
2021/05/11 14:18:38;;;;;;;7.40;2.00;;;;;;;32.03;28.88;99478.70;3392870;84;98337;-81
2021/05/11 14:23:38;;;;;;;8.68;2.10;;;;;;;32.03;28.51;99467.31;3386909;85;32310;-83
2021/05/11 14:28:40;;;;;;;4.85;2.30;;;;;;;32.05;29.48;99465.35;3453180;83;98642;-83
2021/05/11 14:33:40;;;;;;;12.07;2.37;;;;;;;31.81;28.99;99452.77;3460996;84;31855;-83
2021/05/11 14:38:41;;;;;;;6.87;1.52;;;;;;;31.70;29.02;99452.91;3454120;83;98327;-84
2021/05/11 14:43:43;;;;;;;9.80;2.08;;;;;;;31.40;28.47;99437.56;3465847;83;35959;-83
2021/05/11 14:48:44;;;;;;;8.80;2.67;;;;;;;31.30;29.11;99435.66;3456582;84;98642;-82
2021/05/11 14:53:46;;;;;;;5.00;2.40;;;;;;;31.29;28.91;99429.87;3470732;83;35109;-82
2021/05/11 14:58:47;;;;;;;8.35;2.17;;;;;;;31.26;28.67;99437.41;3450665;83;98564;-81
2021/05/11 15:03:47;;;;;;;12.07;2.30;;;;;;;31.10;28.65;99429.11;3464582;83;35084;-83
2021/05/11 15:08:48;;;;;;;6.92;2.12;;;;;;;30.86;28.75;99433.50;3455086;83;98881;-85
2021/05/11 15:13:51;;;;;;;7.95;2.05;;;;;;;30.86;29.07;99434.28;3455155;83;35008;-83
2021/05/11 15:18:52;;;;;;;8.20;2.33;;;;;;;30.79;29.23;99427.78;3457593;83;98645;-83
2021/05/11 15:23:53;;;;;;;11.40;2.95;;;;;;;30.74;29.95;99420.11;3472085;84;35556;-82
2021/05/11 15:28:53;;;;;;;30.90;3.50;;;;;;;30.70;29.74;99416.05;3438364;83;98940;-83
2021/05/11 15:33:56;;;;;;;11.75;2.22;;;;;;;30.61;29.35;99415.77;3456443;84;36015;-84
2021/05/11 15:38:56;;;;;;;9.68;1.80;;;;;;;30.60;29.05;99418.50;3441354;83;98545;-82
2021/05/11 15:43:57;;;;;;;5.15;1.95;;;;;;;30.55;29.44;99417.92;3453484;83;35089;-83
2021/05/11 15:48:58;;;;;;;20.40;3.50;;;;;;;30.52;29.12;99408.30;3447134;83;98553;-83
2021/05/11 15:53:58;;;;;;;12.47;2.50;;;;;;;30.50;27.78;99420.18;3455638;84;35147;-84
2021/05/11 15:59:02;;;;;;;9.35;2.20;;;;;;;30.33;28.20;99406.87;3451517;83;98762;-82
2021/05/11 16:04:02;;;;;;;15.13;1.72;;;;;;;30.22;28.53;99405.59;3450095;83;33360;-82
2021/05/11 16:09:03;;;;;;;9.00;2.40;;;;;;;30.17;28.82;99392.88;3443728;83;98723;-81
2021/05/11 16:14:04;;;;;;;18.25;2.37;;;;;;;30.04;28.36;99397.80;3455023;83;32704;-83
2021/05/11 16:19:05;;;;;;;8.45;2.20;;;;;;;29.87;28.84;99394.38;3441290;83;98408;-82
2021/05/11 16:24:09;;;;;;;15.63;3.50;;;;;;;29.69;28.83;99397.94;3398692;85;32744;-83
2021/05/11 16:29:09;;;;;;;7.95;2.00;;;;;;;29.56;28.43;99395.64;3426438;84;98521;-82
2021/05/11 16:34:10;;;;;;;13.03;2.92;;;;;;;29.43;28.87;99394.83;3433962;84;32653;-83
2021/05/11 16:39:11;;;;;;;12.50;2.17;;;;;;;29.29;28.63;99391.76;3390987;85;98645;-82
2021/05/11 16:44:12;;;;;;;12.33;2.52;;;;;;;29.20;28.59;99409.76;3396630;85;32679;-84
2021/05/11 16:49:13;;;;;;;9.65;2.00;;;;;;;29.11;28.99;99407.25;3351510;86;98656;-84
2021/05/11 16:54:14;;;;;;;6.08;1.80;;;;;;;29.00;28.39;99403.09;3357772;86;33238;-84
2021/05/11 16:59:14;;;;;;;6.92;1.90;;;;;;;28.92;28.87;99405.69;3390069;85;99034;-84
2021/05/11 17:04:15;;;;;;;6.85;2.00;;;;;;;28.81;29.01;99404.36;3362321;86;26125;-84
2021/05/11 17:09:16;;;;;;;7.28;2.27;;;;;;;28.71;28.93;99404.55;3393599;83;98368;-85
2021/05/11 17:14:17;;;;;;;10.10;2.02;;;;;;;28.60;28.99;99406.70;3357972;86;26566;-83
2021/05/11 17:19:18;;;;;;;6.58;2.27;;;;;;;28.48;28.82;99407.41;3374460;84;98835;-84
2021/05/11 17:24:19;;;;;;;5.15;1.70;;;;;;;28.38;29.21;99406.84;3382503;85;26091;-81
2021/05/11 17:29:20;;;;;;;9.40;2.17;;;;;;;28.30;29.06;99399.52;3332293;86;98649;-86
2021/05/11 17:34:21;;;;;;;5.65;2.10;;;;;;;28.21;29.21;99401.84;3357786;86;26321;-82
2021/05/11 17:39:23;;;;;;;10.63;2.35;;;;;;;28.13;29.53;99395.22;3344453;86;98400;-82
2021/05/11 17:44:23;;;;;;;7.37;2.00;;;;;;;28.07;29.23;99384.57;3329582;87;26080;-80
2021/05/11 17:49:24;;;;;;;8.05;2.10;;;;;;;28.01;29.59;99387.41;3340058;86;98607;-84
2021/05/11 17:54:25;;;;;;;9.00;2.30;;;;;;;27.93;29.45;99379.36;3334062;86;26469;-81
2021/05/11 17:59:26;;;;;;;4.65;1.90;;;;;;;27.87;29.08;99385.69;3406308;85;98025;-80
2021/05/11 18:04:27;;;;;;;7.62;2.27;;;;;;;27.84;29.43;99385.30;3354530;86;25970;-82
2021/05/11 18:09:28;;;;;;;5.40;1.90;;;;;;;27.80;29.69;99390.44;3324927;87;98374;-82
2021/05/11 18:14:29;;;;;;;5.45;2.70;;;;;;;27.69;30.01;99392.52;3353741;86;33386;-82
2021/05/11 18:19:29;;;;;;;8.30;2.08;;;;;;;27.52;30.35;99393.21;3353355;86;98431;-84
2021/05/11 18:24:32;;;;;;;8.90;2.47;;;;;;;27.32;30.72;99398.52;3411142;85;33949;-83
2021/05/11 18:29:33;;;;;;;7.83;2.40;;;;;;;27.16;31.09;99395.02;3426260;83;98578;-84
2021/05/11 18:34:37;;;;;;;7.00;2.02;;;;;;;26.98;31.49;99403.23;3463563;83;34708;-83
2021/05/11 18:39:37;;;;;;;10.03;2.72;;;;;;;26.74;32.07;99409.38;3454010;84;98286;-83
2021/05/11 18:44:38;;;;;;;5.92;2.30;;;;;;;26.49;32.64;99415.20;3462297;83;33144;-84
2021/05/11 18:49:39;;;;;;;9.38;2.45;;;;;;;26.18;33.02;99415.36;3458864;83;98923;-84
2021/05/11 18:54:39;;;;;;;9.30;3.10;;;;;;;25.94;34.10;99415.01;3458912;83;32668;-84
2021/05/11 18:59:40;;;;;;;11.73;4.70;;;;;;;25.74;34.92;99412.30;3463297;83;98437;-84
2021/05/11 19:04:41;;;;;;;11.88;5.97;;;;;;;25.50;35.74;99413.33;3461864;83;31547;-84
2021/05/11 19:09:42;;;;;;;12.98;6.85;;;;;;;25.22;36.49;99417.31;3461053;83;98397;-84
2021/05/11 19:14:43;;;;;;;13.60;6.10;;;;;;;24.99;37.27;99421.22;3462239;83;28149;-83
2021/05/11 19:19:44;;;;;;;14.93;5.50;;;;;;;24.74;37.89;99417.03;3454549;83;98164;-85
2021/05/11 19:24:45;;;;;;;14.05;6.03;;;;;;;24.49;38.31;99425.57;3458390;83;31901;-84
2021/05/11 19:29:47;;;;;;;11.33;4.97;;;;;;;24.24;38.64;99422.73;3459853;83;98843;-85
2021/05/11 19:34:48;;;;;;;11.15;5.30;;;;;;;24.00;39.31;99422.95;3453693;83;32400;-84
2021/05/11 19:39:49;;;;;;;14.20;4.35;;;;;;;23.83;39.58;99422.55;3462713;83;98408;-84
2021/05/11 19:44:53;;;;;;;15.20;4.20;;;;;;;23.63;39.89;99423.30;3462479;83;31024;-85
2021/05/11 19:49:54;;;;;;;14.20;5.37;;;;;;;23.44;40.16;99426.84;3451633;82;99029;-85
2021/05/11 19:54:55;;;;;;;10.58;3.42;;;;;;;23.28;40.47;99439.35;3458494;84;31813;-84
2021/05/11 19:59:56;;;;;;;12.23;3.80;;;;;;;23.12;40.83;99437.05;3462114;84;98638;-84
2021/05/11 20:04:56;;;;;;;10.98;4.08;;;;;;;22.98;41.23;99442.03;3467318;83;31728;-85
2021/05/11 20:09:57;;;;;;;10.82;3.95;;;;;;;22.86;41.48;99443.72;3458585;82;98440;-85
2021/05/11 20:15:01;;;;;;;8.58;3.65;;;;;;;22.78;41.53;99443.33;3452593;83;27119;-83
2021/05/11 20:20:02;;;;;;;11.97;3.70;;;;;;;22.76;41.67;99441.64;3458535;84;98459;-83
2021/05/11 20:25:06;;;;;;;9.30;3.42;;;;;;;22.71;41.84;99445.12;3453381;84;32326;-84
2021/05/11 20:30:08;;;;;;;8.48;3.85;;;;;;;22.65;42.16;99442.05;3458605;83;98392;-85
2021/05/11 20:35:13;;;;;;;9.25;3.98;;;;;;;22.55;42.68;99446.23;3465272;83;30536;-84
2021/05/11 20:40:22;;;;;;;8.83;4.17;;;;;;;22.47;43.07;99452.84;3453542;83;98280;-83
2021/05/11 20:45:23;;;;;;;19.35;4.92;;;;;;;22.41;43.86;99444.91;3457609;83;32543;-84
2021/05/11 20:50:27;;;;;;;11.33;4.72;;;;;;;22.35;44.23;99445.41;3444919;83;98438;-83
2021/05/11 20:55:30;;;;;;;11.35;4.67;;;;;;;22.25;45.17;99441.16;3467758;84;30434;-82
2021/05/11 21:00:32;;;;;;;12.45;4.30;;;;;;;22.23;45.51;99443.64;3467534;84;98223;-85
2021/05/11 21:05:34;;;;;;;12.37;5.50;;;;;;;22.14;45.95;99441.55;3458639;84;30965;-84
2021/05/11 21:10:35;;;;;;;9.98;4.47;;;;;;;22.08;46.54;99445.62;3389797;85;98705;-84
2021/05/11 21:15:36;;;;;;;12.17;5.17;;;;;;;22.03;46.55;99441.31;3364500;85;32389;-83
2021/05/11 21:20:37;;;;;;;10.35;5.17;;;;;;;21.98;46.95;99437.77;3436030;84;100647;-85
2021/05/11 21:25:38;;;;;;;16.83;5.03;;;;;;;21.94;46.70;99438.56;3449888;83;29232;-85
2021/05/11 21:30:38;;;;;;;12.23;5.12;;;;;;;21.80;46.77;99431.66;3369271;86;98763;-84
2021/05/11 21:35:39;;;;;;;11.15;5.25;;;;;;;21.79;46.61;99440.55;3358507;86;28017;-87
2021/05/11 21:40:40;;;;;;;12.98;5.85;;;;;;;21.76;46.86;99438.08;3325522;86;98631;-84
2021/05/11 21:45:41;;;;;;;14.18;5.53;;;;;;;21.68;47.03;99435.47;3335432;87;25908;-84
2021/05/11 21:50:41;;;;;;;12.88;5.47;;;;;;;21.62;47.42;99437.34;3329674;86;98622;-86
2021/05/11 21:55:43;;;;;;;11.08;6.00;;;;;;;21.57;47.57;99434.43;3351976;86;35100;-83
2021/05/11 22:00:44;;;;;;;13.13;6.42;;;;;;;21.48;48.00;99427.47;3348678;86;98727;-86
2021/05/11 22:05:45;;;;;;;15.72;5.83;;;;;;;21.41;48.34;99427.83;3359063;86;34345;-85
2021/05/11 22:10:46;;;;;;;11.28;5.83;;;;;;;21.35;48.79;99429.08;3346601;86;98500;-85
2021/05/11 22:15:47;;;;;;;13.10;6.35;;;;;;;21.26;49.12;99422.11;3349358;86;34136;-84
2021/05/11 22:20:48;;;;;;;15.18;6.40;;;;;;;21.19;49.23;99422.46;3321791;87;98271;-84
2021/05/11 22:25:48;;;;;;;11.08;5.22;;;;;;;21.14;49.36;99415.34;3352096;86;27441;-83
2021/05/11 22:30:49;;;;;;;13.15;5.40;;;;;;;21.04;49.91;99413.19;3382349;85;98732;-85
2021/05/11 22:35:51;;;;;;;12.05;5.45;;;;;;;20.95;49.96;99417.43;3356816;86;26516;-84
2021/05/11 22:40:51;;;;;;;9.18;4.80;;;;;;;20.86;49.93;99414.63;3347598;85;98099;-84
2021/05/11 22:45:53;;;;;;;15.98;5.78;;;;;;;20.79;50.20;99418.37;3443725;84;32562;-84
2021/05/11 22:50:54;;;;;;;9.65;4.90;;;;;;;20.74;50.18;99416.20;3403180;84;98524;-85
2021/05/11 22:55:58;;;;;;;9.83;4.87;;;;;;;20.66;50.55;99421.34;3411644;83;98662;-83
2021/05/11 23:00:59;;;;;;;12.13;5.53;;;;;;;20.55;51.40;99422.45;3355187;87;32787;-84
2021/05/11 23:06:00;;;;;;;12.07;5.93;;;;;;;20.48;51.68;99415.78;3353551;85;98779;-85
2021/05/11 23:11:00;;;;;;;8.95;4.75;;;;;;;20.38;52.06;99410.05;3428326;84;31729;-84
2021/05/11 23:16:01;;;;;;;12.93;6.00;;;;;;;20.30;53.13;99408.04;3419630;83;98711;-84
2021/05/11 23:21:02;;;;;;;14.25;6.37;;;;;;;20.19;53.18;99405.73;3412030;85;29961;-85
2021/05/11 23:26:03;;;;;;;17.83;7.17;;;;;;;20.09;54.09;99405.57;3405290;84;104280;-85
2021/05/11 23:31:04;;;;;;;16.62;6.60;;;;;;;20.01;54.28;99405.67;3450471;84;26968;-85
2021/05/11 23:36:05;;;;;;;16.87;7.13;;;;;;;19.92;54.86;99403.51;3395340;85;98723;-85
2021/05/11 23:41:06;;;;;;;12.37;5.67;;;;;;;19.82;55.22;99397.75;3357289;86;26159;-86
2021/05/11 23:46:07;;;;;;;16.27;6.90;;;;;;;19.75;55.13;99399.45;3444316;83;98999;-84
2021/05/11 23:51:07;;;;;;;12.43;6.60;;;;;;;19.71;55.61;99397.42;3446180;84;29606;-86
2021/05/11 23:56:08;;;;;;;11.03;6.47;;;;;;;19.63;55.59;99392.00;3439822;83;98872;-85
